createdAt,value
2023-05-11T00:01:25.770Z,1.40
2023-05-11T00:03:53.782Z,2.20
2023-05-11T00:06:21.751Z,1.90
2023-05-11T00:08:49.734Z,2.20
2023-05-11T00:11:18.892Z,2.10
2023-05-11T00:13:46.921Z,2.10
2023-05-11T00:16:15.033Z,2.00
2023-05-11T00:18:42.788Z,2.10
2023-05-11T00:21:11.972Z,2.00
2023-05-11T00:23:39.651Z,2.40
2023-05-11T00:26:07.355Z,2.10
2023-05-11T00:28:35.023Z,2.00
2023-05-11T00:31:02.951Z,2.20
2023-05-11T00:33:30.842Z,1.90
2023-05-11T00:35:58.705Z,2.60
2023-05-11T00:38:26.420Z,2.20
2023-05-11T00:40:54.255Z,2.30
2023-05-11T00:43:21.971Z,1.50
2023-05-11T00:45:49.834Z,2.00
2023-05-11T00:48:17.581Z,1.60
2023-05-11T00:50:46.220Z,1.80
2023-05-11T00:53:13.935Z,2.40
2023-05-11T00:55:42.076Z,2.00
2023-05-11T00:58:09.813Z,2.20
2023-05-11T01:00:37.640Z,1.40
2023-05-11T01:03:05.717Z,2.20
2023-05-11T01:05:44.261Z,2.20
2023-05-11T01:08:35.034Z,2.60
2023-05-11T01:11:11.543Z,2.40
2023-05-11T01:14:04.684Z,1.60
2023-05-11T01:16:37.342Z,2.10
2023-05-11T01:19:19.488Z,2.30
2023-05-11T01:21:50.845Z,1.60
2023-05-11T01:24:56.278Z,1.70
2023-05-11T01:27:39.299Z,1.70
2023-05-11T01:30:18.574Z,2.00
2023-05-11T01:32:47.239Z,1.70
2023-05-11T01:35:20.124Z,2.30
2023-05-11T01:37:54.630Z,2.20
2023-05-11T01:40:27.810Z,1.70
2023-05-11T01:43:03.855Z,1.30
2023-05-11T01:45:34.645Z,1.60
2023-05-11T01:48:09.659Z,1.60
2023-05-11T01:50:39.882Z,1.50
2023-05-11T01:53:10.034Z,1.70
2023-05-11T01:55:40.621Z,1.60
2023-05-11T01:58:11.095Z,1.70
2023-05-11T02:00:39.374Z,2.10
2023-05-11T02:03:09.409Z,2.00
2023-05-11T02:05:39.538Z,1.60
2023-05-11T02:08:09.847Z,1.80
2023-05-11T02:10:41.192Z,2.20
2023-05-11T02:13:10.268Z,2.30
2023-05-11T02:15:42.267Z,2.30
2023-05-11T02:18:14.438Z,2.00
2023-05-11T02:20:45.267Z,2.00
2023-05-11T02:23:13.498Z,2.10
2023-05-11T02:25:41.961Z,2.00
2023-05-11T02:28:09.796Z,1.80
2023-05-11T02:30:44.104Z,2.20
2023-05-11T02:33:34.626Z,2.50
2023-05-11T02:36:06.271Z,1.90
2023-05-11T02:38:36.036Z,2.30
2023-05-11T02:41:09.394Z,2.20
2023-05-11T02:43:44.009Z,1.90
2023-05-11T02:46:17.762Z,1.90
2023-05-11T02:48:52.361Z,1.60
2023-05-11T02:51:24.373Z,1.50
2023-05-11T02:53:57.202Z,1.60
2023-05-11T02:56:26.271Z,1.70
2023-05-11T02:58:54.873Z,1.70
2023-05-11T03:01:25.881Z,2.40
2023-05-11T03:03:54.874Z,2.40
2023-05-11T03:06:25.795Z,2.00
2023-05-11T03:08:53.720Z,2.00
2023-05-11T03:11:22.622Z,2.10
2023-05-11T03:13:50.786Z,2.40
2023-05-11T03:16:21.517Z,2.70
2023-05-11T03:18:50.425Z,2.00
2023-05-11T03:21:21.372Z,2.30
2023-05-11T03:23:50.107Z,2.30
2023-05-11T03:26:19.312Z,2.80
2023-05-11T03:28:48.468Z,2.10
2023-05-11T03:31:16.393Z,2.00
2023-05-11T03:33:44.430Z,2.30
2023-05-11T03:36:14.611Z,2.00
2023-05-11T03:38:45.014Z,1.60
2023-05-11T03:41:17.090Z,2.20
2023-05-11T03:43:51.517Z,1.70
2023-05-11T03:46:21.614Z,2.10
2023-05-11T03:51:21.049Z,1.70
2023-05-11T03:53:48.717Z,1.40
2023-05-11T03:56:16.472Z,2.20
2023-05-11T03:58:44.651Z,1.90
2023-05-11T04:01:13.117Z,1.70
2023-05-11T04:03:49.627Z,2.00
2023-05-11T04:06:18.036Z,2.00
2023-05-11T04:08:47.523Z,2.00
2023-05-11T04:11:15.251Z,2.40
2023-05-11T04:13:42.989Z,1.90
2023-05-11T04:16:10.723Z,2.00
2023-05-11T04:18:38.562Z,1.90
2023-05-11T04:21:06.324Z,2.60
2023-05-11T04:23:34.151Z,1.50
2023-05-11T04:26:02.144Z,1.70
2023-05-11T04:28:30.131Z,2.40
2023-05-11T04:30:58.917Z,2.50
2023-05-11T04:33:26.829Z,2.10
2023-05-11T04:35:55.778Z,2.00
2023-05-11T04:38:24.447Z,2.10
2023-05-11T04:40:52.222Z,2.10
2023-05-11T04:43:20.426Z,2.10
2023-05-11T04:45:50.001Z,2.30
2023-05-11T04:48:22.247Z,1.80
2023-05-11T04:50:50.040Z,2.10
2023-05-11T04:53:19.762Z,2.00
2023-05-11T04:55:47.895Z,1.90
2023-05-11T04:58:15.712Z,2.20
2023-05-11T05:00:43.452Z,2.20
2023-05-11T05:03:13.525Z,1.80
2023-05-11T05:05:41.179Z,2.30
2023-05-11T05:08:08.873Z,2.20
2023-05-11T05:10:36.538Z,2.30
2023-05-11T05:13:04.347Z,2.10
2023-05-11T05:15:32.079Z,1.80
2023-05-11T05:18:00.161Z,2.30
2023-05-11T05:20:28.875Z,2.20
2023-05-11T05:22:59.083Z,2.20
2023-05-11T05:25:26.963Z,2.10
2023-05-11T05:27:55.279Z,2.00
2023-05-11T05:30:23.126Z,2.20
2023-05-11T05:32:51.552Z,2.10
2023-05-11T05:35:19.326Z,2.20
2023-05-11T05:37:46.995Z,1.60
2023-05-11T05:40:15.268Z,1.80
2023-05-11T05:42:48.483Z,2.00
2023-05-11T05:45:20.835Z,1.70
2023-05-11T05:47:49.395Z,1.90
2023-05-11T05:50:17.770Z,2.00
2023-05-11T05:52:46.129Z,1.70
2023-05-11T05:55:14.160Z,1.70
2023-05-11T05:57:42.696Z,2.00
2023-05-11T06:00:11.745Z,1.90
2023-05-11T06:02:42.504Z,1.60
2023-05-11T06:05:17.368Z,2.10
2023-05-11T06:07:51.498Z,1.60
2023-05-11T06:10:26.265Z,1.60
2023-05-11T06:12:53.969Z,1.60
2023-05-11T06:15:23.036Z,1.70
2023-05-11T06:17:55.384Z,1.50
2023-05-11T06:20:24.330Z,1.30
2023-05-11T06:22:52.125Z,1.50
2023-05-11T06:25:20.469Z,1.60
2023-05-11T06:27:48.919Z,1.40
2023-05-11T06:30:17.404Z,1.60
2023-05-11T06:32:46.169Z,1.60
2023-05-11T06:35:14.812Z,1.60
2023-05-11T06:37:42.787Z,1.70
2023-05-11T06:40:10.962Z,1.60
2023-05-11T06:42:38.826Z,1.40
2023-05-11T06:45:09.681Z,1.60
2023-05-11T06:47:37.601Z,1.40
2023-05-11T06:50:06.004Z,1.70
2023-05-11T06:52:33.799Z,1.30
2023-05-11T06:55:02.090Z,1.60
2023-05-11T06:57:29.973Z,1.60
2023-05-11T06:59:57.673Z,1.20
2023-05-11T07:02:25.429Z,1.50
2023-05-11T07:04:53.232Z,1.20
2023-05-11T07:07:21.175Z,1.40
2023-05-11T07:09:49.084Z,1.50
2023-05-11T07:12:16.837Z,1.20
2023-05-11T07:14:44.531Z,1.40
2023-05-11T07:17:12.322Z,1.10
2023-05-11T07:19:40.241Z,1.40
2023-05-11T07:22:07.869Z,1.40
2023-05-11T07:24:36.535Z,1.20
2023-05-11T07:27:04.246Z,1.20
2023-05-11T07:29:32.027Z,1.30
2023-05-11T07:31:59.774Z,1.00
2023-05-11T07:34:29.959Z,1.40
2023-05-11T07:36:57.659Z,1.10
2023-05-11T07:39:25.383Z,1.40
2023-05-11T07:41:53.077Z,1.40
2023-05-11T07:44:21.425Z,1.30
2023-05-11T07:46:49.111Z,1.10
2023-05-11T07:49:22.688Z,1.20
2023-05-11T07:51:55.841Z,3.10
2023-05-11T07:54:23.587Z,1.30
2023-05-11T07:56:51.257Z,1.50
2023-05-11T07:59:18.934Z,1.10
2023-05-11T08:01:46.731Z,1.10
2023-05-11T08:04:14.509Z,1.70
2023-05-11T08:06:42.918Z,1.40
2023-05-11T08:09:11.078Z,1.20
2023-05-11T08:11:38.767Z,1.70
2023-05-11T08:14:06.414Z,1.50
2023-05-11T08:16:35.824Z,1.50
2023-05-11T08:19:03.823Z,1.50
2023-05-11T08:21:32.850Z,1.20
2023-05-11T08:24:00.453Z,1.20
2023-05-11T08:26:28.501Z,0.90
2023-05-11T08:28:56.144Z,1.20
2023-05-11T08:31:26.364Z,1.40
2023-05-11T08:33:54.265Z,1.20
2023-05-11T08:36:22.135Z,1.20
2023-05-11T08:38:49.863Z,1.40
2023-05-11T08:41:17.642Z,1.20
2023-05-11T08:43:47.040Z,1.40
2023-05-11T08:46:21.031Z,1.20
2023-05-11T08:48:49.673Z,1.60
2023-05-11T08:51:17.530Z,1.20
2023-05-11T08:53:45.366Z,1.40
2023-05-11T08:56:13.495Z,1.30
2023-05-11T08:58:42.910Z,1.50
2023-05-11T09:01:12.501Z,1.20
2023-05-11T09:03:41.456Z,1.20
2023-05-11T09:06:09.640Z,1.30
2023-05-11T09:08:38.191Z,1.60
2023-05-11T09:11:06.609Z,1.30
2023-05-11T09:13:34.388Z,1.50
2023-05-11T09:16:02.309Z,1.10
2023-05-11T09:18:30.093Z,1.30
2023-05-11T09:20:58.060Z,1.30
2023-05-11T09:23:27.130Z,1.50
2023-05-11T09:28:25.992Z,1.20
2023-05-11T09:30:54.426Z,1.50
2023-05-11T09:33:24.365Z,1.60
2023-05-11T09:35:53.407Z,1.20
2023-05-11T09:38:24.947Z,1.80
2023-05-11T09:40:56.687Z,1.30
2023-05-11T09:43:26.372Z,1.50
2023-05-11T09:45:58.755Z,1.30
2023-05-11T09:48:32.102Z,1.60
2023-05-11T09:51:08.207Z,1.10
2023-05-11T09:53:45.690Z,1.60
2023-05-11T09:56:13.917Z,1.20
2023-05-11T09:58:57.294Z,1.30
2023-05-11T10:01:33.088Z,1.30
2023-05-11T10:04:21.428Z,1.30
2023-05-11T10:06:53.389Z,1.30
2023-05-11T10:09:24.689Z,1.30
2023-05-11T10:11:53.636Z,1.20
2023-05-11T10:16:51.132Z,1.30
2023-05-11T10:19:19.658Z,1.20
2023-05-11T10:21:47.754Z,1.40
2023-05-11T10:24:17.149Z,1.30
2023-05-11T10:26:45.984Z,1.50
2023-05-11T10:29:14.264Z,1.40
2023-05-11T10:31:42.525Z,1.40
2023-05-11T10:34:11.888Z,1.60
2023-05-11T10:36:39.686Z,2.00
2023-05-11T10:39:07.716Z,1.20
2023-05-11T10:42:00.256Z,1.40
2023-05-11T10:45:11.710Z,1.30
2023-05-11T10:47:57.980Z,1.50
2023-05-11T10:50:36.836Z,1.70
2023-05-11T10:53:37.158Z,1.50
2023-05-11T10:56:30.668Z,1.10
2023-05-11T11:01:39.456Z,1.50
2023-05-11T11:04:09.307Z,2.00
2023-05-11T11:06:46.318Z,1.40
2023-05-11T11:09:15.801Z,1.70
2023-05-11T11:11:46.426Z,1.50
2023-05-11T11:14:16.669Z,1.30
2023-05-11T11:17:15.250Z,1.80
2023-05-11T11:19:43.434Z,1.80
2023-05-11T11:22:36.345Z,1.30
2023-05-11T11:25:07.191Z,1.40
2023-05-11T11:27:41.758Z,1.50
2023-05-11T11:30:30.571Z,1.60
2023-05-11T11:33:07.883Z,1.70
2023-05-11T11:35:42.124Z,1.80
2023-05-11T11:38:15.434Z,1.70
2023-05-11T11:54:44.856Z,1.80
2023-05-11T11:57:35.250Z,1.70
2023-05-11T12:00:10.908Z,1.50
2023-05-11T12:02:43.335Z,1.50
2023-05-11T12:05:20.032Z,1.60
2023-05-11T12:07:53.021Z,1.80
2023-05-11T12:10:22.438Z,1.50
2023-05-11T12:12:59.309Z,1.30
2023-05-11T12:15:34.519Z,1.40
2023-05-11T12:18:03.558Z,1.70
2023-05-11T12:20:32.798Z,1.70
2023-05-11T12:23:01.423Z,1.80
2023-05-11T12:25:29.125Z,1.50
2023-05-11T12:28:03.304Z,1.80
2023-05-11T12:30:33.196Z,1.20
2023-05-11T12:33:04.154Z,1.40
2023-05-11T12:35:34.171Z,1.60
2023-05-11T12:38:02.702Z,1.50
2023-05-11T12:40:31.282Z,1.80
2023-05-11T12:43:00.837Z,1.60
2023-05-11T12:45:29.365Z,1.70
2023-05-11T12:47:58.505Z,1.70
2023-05-11T12:50:26.360Z,1.60
2023-05-11T12:52:54.266Z,1.70
2023-05-11T12:55:29.504Z,1.50
2023-05-11T13:00:54.535Z,1.70
2023-05-11T13:03:29.584Z,1.60
2023-05-11T13:06:11.812Z,1.90
2023-05-11T13:08:44.094Z,1.70
2023-05-11T13:11:17.808Z,1.80
2023-05-11T13:13:45.666Z,1.90
2023-05-11T13:16:24.837Z,1.50
2023-05-11T13:19:03.726Z,1.60
2023-05-11T13:21:33.317Z,1.80
2023-05-11T13:24:03.778Z,1.70
2023-05-11T13:26:32.080Z,1.80
2023-05-11T13:29:10.352Z,1.40
2023-05-11T13:31:52.967Z,1.50
2023-05-11T13:34:20.946Z,1.60
2023-05-11T13:36:48.776Z,1.80
2023-05-11T13:39:16.576Z,2.20
2023-05-11T13:41:44.353Z,1.40
2023-05-11T13:44:12.133Z,1.60
2023-05-11T13:46:40.382Z,1.50
2023-05-11T13:49:08.612Z,2.10
2023-05-11T13:51:36.389Z,1.60
2023-05-11T13:54:04.305Z,2.00
2023-05-11T13:56:32.134Z,2.10
2023-05-11T13:59:00.212Z,1.80
2023-05-11T14:01:31.195Z,1.50
2023-05-11T14:03:59.084Z,1.80
2023-05-11T14:06:26.887Z,1.60
2023-05-11T14:08:54.753Z,2.00
2023-05-11T14:11:22.993Z,1.60
2023-05-11T14:13:51.364Z,1.80
2023-05-11T14:16:19.728Z,1.60
2023-05-11T14:18:48.668Z,2.10
2023-05-11T14:23:56.857Z,1.30
2023-05-11T14:26:30.405Z,1.90
2023-05-11T14:28:58.123Z,1.80
2023-05-11T14:31:26.341Z,1.80
2023-05-11T14:33:55.971Z,1.60
2023-05-11T14:36:23.826Z,2.10
2023-05-11T14:38:52.089Z,1.60
2023-05-11T14:41:19.778Z,1.80
2023-05-11T14:43:49.223Z,1.60
2023-05-11T14:46:17.016Z,1.70
2023-05-11T14:48:45.092Z,1.70
2023-05-11T14:51:12.896Z,1.70
2023-05-11T14:53:40.965Z,1.70
2023-05-11T14:56:08.731Z,1.40
2023-05-11T14:58:38.891Z,1.70
2023-05-11T15:01:06.837Z,1.40
2023-05-11T15:03:37.192Z,1.40
2023-05-11T15:06:05.607Z,2.00
2023-05-11T15:08:33.378Z,1.80
2023-05-11T15:11:01.143Z,1.50
2023-05-11T15:13:28.826Z,1.60
2023-05-11T15:15:56.870Z,1.70
2023-05-11T15:18:24.619Z,1.50
2023-05-11T15:20:52.419Z,1.60
2023-05-11T15:23:20.178Z,1.50
2023-05-11T15:25:48.743Z,1.50
2023-05-11T15:28:16.724Z,1.50
2023-05-11T15:30:44.400Z,1.30
2023-05-11T15:33:12.214Z,1.40
2023-05-11T15:35:39.923Z,1.60
2023-05-11T15:38:07.838Z,1.30
2023-05-11T15:40:35.780Z,1.40
2023-05-11T15:43:03.691Z,1.50
2023-05-11T15:45:31.369Z,1.30
2023-05-11T15:47:59.762Z,1.50
2023-05-11T15:50:27.693Z,1.30
2023-05-11T15:52:56.429Z,1.40
2023-05-11T15:55:25.480Z,1.60
2023-05-11T15:57:53.310Z,1.30
2023-05-11T16:00:21.639Z,1.90
2023-05-11T16:02:49.954Z,1.80
2023-05-11T16:05:17.970Z,1.30
2023-05-11T16:07:45.706Z,1.60
2023-05-11T16:10:13.356Z,1.60
2023-05-11T16:12:41.037Z,1.60
2023-05-11T16:15:09.056Z,1.70
2023-05-11T16:17:36.810Z,1.60
2023-05-11T16:20:05.084Z,1.40
2023-05-11T16:22:32.949Z,1.60
2023-05-11T16:25:01.545Z,1.40
2023-05-11T16:27:29.236Z,1.60
2023-05-11T16:29:57.727Z,1.40
2023-05-11T16:32:25.543Z,1.40
2023-05-11T16:34:53.464Z,1.60
2023-05-11T16:37:21.200Z,1.60
2023-05-11T16:39:48.888Z,1.40
2023-05-11T16:42:16.533Z,1.10
2023-05-11T16:44:44.178Z,1.80
2023-05-11T16:47:11.861Z,1.20
2023-05-11T16:49:39.511Z,1.40
2023-05-11T16:52:07.217Z,1.60
2023-05-11T16:54:34.927Z,1.20
2023-05-11T16:57:02.732Z,1.30
2023-05-11T16:59:33.045Z,1.50
2023-05-11T17:02:01.438Z,1.40
2023-05-11T17:04:29.313Z,1.40
2023-05-11T17:06:57.100Z,1.50
2023-05-11T17:09:24.818Z,1.40
2023-05-11T17:11:52.494Z,1.50
2023-05-11T17:14:20.188Z,1.00
2023-05-11T17:16:47.956Z,1.20
2023-05-11T17:19:16.607Z,1.40
2023-05-11T17:21:44.745Z,1.60
2023-05-11T17:24:12.819Z,1.50
2023-05-11T17:26:47.680Z,1.70
2023-05-11T17:29:17.198Z,1.80
2023-05-11T17:31:48.834Z,1.30
2023-05-11T17:34:18.238Z,1.40
2023-05-11T17:39:13.934Z,1.40
2023-05-11T17:41:41.832Z,1.40
2023-05-11T17:44:09.648Z,1.60
2023-05-11T17:46:37.383Z,1.40
2023-05-11T17:49:06.603Z,1.20
2023-05-11T17:54:02.520Z,1.30
2023-05-11T17:56:31.421Z,1.50
2023-05-11T17:58:59.447Z,1.70
2023-05-11T18:01:27.882Z,1.70
2023-05-11T18:03:57.938Z,2.10
2023-05-11T18:06:26.048Z,1.60
2023-05-11T18:08:54.155Z,1.50
2023-05-11T18:11:21.978Z,1.80
2023-05-11T18:13:49.809Z,1.70
2023-05-11T18:16:18.000Z,1.90
2023-05-11T18:18:46.247Z,1.90
2023-05-11T18:21:14.213Z,1.90
2023-05-11T18:23:42.442Z,1.90
2023-05-11T18:26:11.249Z,2.20
2023-05-11T18:28:38.854Z,2.00
2023-05-11T18:31:06.633Z,2.50
2023-05-11T18:33:34.480Z,2.30
2023-05-11T18:36:03.325Z,2.30
2023-05-11T18:38:31.171Z,2.50
2023-05-11T18:41:03.278Z,2.00
2023-05-11T18:43:31.548Z,2.10
2023-05-11T18:45:59.197Z,2.20
2023-05-11T18:48:26.966Z,2.30
2023-05-11T18:50:55.728Z,2.20
2023-05-11T18:53:23.992Z,2.30
2023-05-11T18:55:53.596Z,2.40
2023-05-11T18:58:22.204Z,2.40
2023-05-11T19:00:51.650Z,2.40
2023-05-11T19:03:20.743Z,2.70
2023-05-11T19:05:49.293Z,2.50
2023-05-11T19:08:17.038Z,2.90
2023-05-11T19:10:45.417Z,3.00
2023-05-11T19:13:13.509Z,2.80
2023-05-11T19:15:41.252Z,2.70
2023-05-11T19:18:09.047Z,3.20
2023-05-11T19:20:39.120Z,2.30
2023-05-11T19:23:07.173Z,2.80
2023-05-11T19:25:34.835Z,2.40
2023-05-11T19:28:02.477Z,2.60
2023-05-11T19:30:30.140Z,2.90
2023-05-11T19:32:57.874Z,3.00
2023-05-11T19:35:28.161Z,2.60
2023-05-11T19:37:55.975Z,2.50
2023-05-11T19:42:55.982Z,2.90
2023-05-11T19:45:23.784Z,2.60
2023-05-11T19:47:51.483Z,3.20
2023-05-11T19:50:21.834Z,3.10
2023-05-11T19:52:52.036Z,3.00
2023-05-11T19:55:19.716Z,2.80
2023-05-11T19:57:47.862Z,2.80
2023-05-11T20:00:18.390Z,3.10
2023-05-11T20:02:46.741Z,2.80
2023-05-11T20:05:14.644Z,2.80
2023-05-11T20:07:42.993Z,3.00
2023-05-11T20:10:11.806Z,2.80
2023-05-11T20:12:40.024Z,2.80
2023-05-11T20:15:08.995Z,2.90
2023-05-11T20:17:37.070Z,3.30
2023-05-11T20:20:05.327Z,3.80
2023-05-11T20:22:33.548Z,3.10
2023-05-11T20:25:01.500Z,3.30
2023-05-11T20:27:29.272Z,3.30
2023-05-11T20:29:57.143Z,3.30
2023-05-11T20:32:25.229Z,2.70
2023-05-11T20:34:53.021Z,3.50
2023-05-11T20:37:21.694Z,2.70
2023-05-11T20:39:49.654Z,3.00
2023-05-11T20:42:17.292Z,2.60
2023-05-11T20:44:48.982Z,3.10
2023-05-11T20:47:17.578Z,2.80
2023-05-11T20:49:47.677Z,2.90
2023-05-11T20:52:15.376Z,3.70
2023-05-11T20:54:43.231Z,3.20
2023-05-11T20:57:10.989Z,3.50
2023-05-11T21:02:09.423Z,3.20
2023-05-11T21:04:38.843Z,2.90
2023-05-11T21:07:07.021Z,2.70
2023-05-11T21:09:35.040Z,2.60
2023-05-11T21:12:02.820Z,2.80
2023-05-11T21:14:30.594Z,2.40
2023-05-11T21:16:58.299Z,2.50
2023-05-11T21:19:26.202Z,2.70
2023-05-11T21:21:53.901Z,2.70
2023-05-11T21:24:21.644Z,2.40
2023-05-11T21:26:49.423Z,2.60
2023-05-11T21:29:17.876Z,3.10
2023-05-11T21:31:45.796Z,2.80
2023-05-11T21:34:13.461Z,2.90
2023-05-11T21:36:41.700Z,2.40
2023-05-11T21:39:09.358Z,2.40
2023-05-11T21:41:37.006Z,2.80
2023-05-11T21:44:04.963Z,2.30
2023-05-11T21:46:32.863Z,2.90
2023-05-11T21:49:01.569Z,2.50
2023-05-11T21:51:29.264Z,2.70
2023-05-11T21:53:56.973Z,2.50
2023-05-11T21:56:25.029Z,3.00
2023-05-11T21:58:52.651Z,2.60
2023-05-11T22:01:20.540Z,2.70
2023-05-11T22:03:48.228Z,3.00
2023-05-11T22:06:16.137Z,2.40
2023-05-11T22:08:44.666Z,2.40
2023-05-11T22:11:12.327Z,2.50
2023-05-11T22:13:39.981Z,2.90
2023-05-11T22:16:07.987Z,3.20
2023-05-11T22:18:35.777Z,2.20
2023-05-11T22:21:03.828Z,2.30
2023-05-11T22:23:32.154Z,2.20
2023-05-11T22:25:59.823Z,2.30
2023-05-11T22:28:29.285Z,2.50
2023-05-11T22:33:28.703Z,2.00
2023-05-11T22:35:56.774Z,3.00
2023-05-11T22:38:24.599Z,2.70
2023-05-11T22:40:52.305Z,2.50
2023-05-11T22:43:20.078Z,3.00
2023-05-11T22:45:48.538Z,3.30
2023-05-11T22:48:16.754Z,2.90
2023-05-11T22:50:47.376Z,2.50
2023-05-11T22:53:15.296Z,2.60
2023-05-11T22:55:42.993Z,2.60
2023-05-11T22:58:10.856Z,2.80
2023-05-11T23:00:38.944Z,2.70
2023-05-11T23:03:06.793Z,2.70
2023-05-11T23:05:34.689Z,2.90
2023-05-11T23:08:02.340Z,2.60
2023-05-11T23:10:30.057Z,2.90
2023-05-11T23:12:57.825Z,2.90
2023-05-11T23:15:26.227Z,2.60
2023-05-11T23:17:53.949Z,2.80
2023-05-11T23:20:22.388Z,3.00
2023-05-11T23:22:50.183Z,2.00
2023-05-11T23:25:18.122Z,2.50
2023-05-11T23:27:45.933Z,2.80
2023-05-11T23:30:13.766Z,2.50
2023-05-11T23:32:41.594Z,2.80
2023-05-11T23:35:09.584Z,2.60
2023-05-11T23:37:37.246Z,2.40
2023-05-11T23:40:05.814Z,2.60
2023-05-11T23:42:33.425Z,2.50
2023-05-11T23:45:04.745Z,2.30
2023-05-11T23:47:32.674Z,2.90
2023-05-11T23:50:00.968Z,2.50
2023-05-11T23:52:29.727Z,2.80
2023-05-11T23:54:57.926Z,2.50
2023-05-11T23:57:25.814Z,2.40
2023-05-11T23:59:53.860Z,2.90
